sensor_id;sensor_type;location;lat;lon;timestamp;P1;durP1;ratioP1;P2;durP2;ratioP2
7031;SDS011;3557;48.880;8.328;2023-06-22T00:01:17;9.18;;;4.45;;
7031;SDS011;3557;48.880;8.328;2023-06-22T00:03:46;5.15;;;4.45;;
7031;SDS011;3557;48.880;8.328;2023-06-22T00:06:13;7.07;;;4.70;;
7031;SDS011;3557;48.880;8.328;2023-06-22T00:08:41;5.07;;;4.53;;
7031;SDS011;3557;48.880;8.328;2023-06-22T00:11:08;6.78;;;4.45;;
7031;SDS011;3557;48.880;8.328;2023-06-22T00:13:36;7.50;;;4.90;;
7031;SDS011;3557;48.880;8.328;2023-06-22T00:16:03;7.32;;;4.82;;
7031;SDS011;3557;48.880;8.328;2023-06-22T00:18:31;5.20;;;4.70;;
7031;SDS011;3557;48.880;8.328;2023-06-22T00:21:00;5.75;;;4.68;;
7031;SDS011;3557;48.880;8.328;2023-06-22T00:23:27;5.50;;;4.13;;
7031;SDS011;3557;48.880;8.328;2023-06-22T00:25:59;6.88;;;4.53;;
7031;SDS011;3557;48.880;8.328;2023-06-22T00:28:26;7.63;;;4.13;;
7031;SDS011;3557;48.880;8.328;2023-06-22T00:30:54;4.88;;;4.15;;
7031;SDS011;3557;48.880;8.328;2023-06-22T00:33:21;8.77;;;4.38;;
7031;SDS011;3557;48.880;8.328;2023-06-22T00:35:49;7.13;;;4.20;;
7031;SDS011;3557;48.880;8.328;2023-06-22T00:38:19;8.07;;;4.40;;
7031;SDS011;3557;48.880;8.328;2023-06-22T00:40:46;8.32;;;4.35;;
7031;SDS011;3557;48.880;8.328;2023-06-22T00:43:14;7.03;;;4.47;;
7031;SDS011;3557;48.880;8.328;2023-06-22T00:45:41;7.13;;;4.50;;
7031;SDS011;3557;48.880;8.328;2023-06-22T00:48:09;6.53;;;4.40;;
7031;SDS011;3557;48.880;8.328;2023-06-22T00:50:37;7.40;;;4.70;;
7031;SDS011;3557;48.880;8.328;2023-06-22T00:53:05;5.88;;;4.28;;
7031;SDS011;3557;48.880;8.328;2023-06-22T00:55:36;5.13;;;4.50;;
7031;SDS011;3557;48.880;8.328;2023-06-22T00:58:04;7.18;;;4.88;;
7031;SDS011;3557;48.880;8.328;2023-06-22T01:00:35;8.05;;;5.00;;
7031;SDS011;3557;48.880;8.328;2023-06-22T01:03:03;5.78;;;5.10;;
7031;SDS011;3557;48.880;8.328;2023-06-22T01:05:34;7.15;;;4.85;;
7031;SDS011;3557;48.880;8.328;2023-06-22T01:08:06;6.25;;;5.20;;
7031;SDS011;3557;48.880;8.328;2023-06-22T01:10:44;6.93;;;4.70;;
7031;SDS011;3557;48.880;8.328;2023-06-22T01:13:21;6.57;;;4.93;;
7031;SDS011;3557;48.880;8.328;2023-06-22T01:15:55;6.70;;;4.70;;
7031;SDS011;3557;48.880;8.328;2023-06-22T01:18:26;7.60;;;4.93;;
7031;SDS011;3557;48.880;8.328;2023-06-22T01:20:56;6.95;;;4.55;;
7031;SDS011;3557;48.880;8.328;2023-06-22T01:23:26;9.18;;;4.82;;
7031;SDS011;3557;48.880;8.328;2023-06-22T01:26:04;10.38;;;5.60;;
7031;SDS011;3557;48.880;8.328;2023-06-22T01:28:39;6.88;;;5.07;;
7031;SDS011;3557;48.880;8.328;2023-06-22T01:31:12;7.55;;;5.07;;
7031;SDS011;3557;48.880;8.328;2023-06-22T01:33:43;7.25;;;4.90;;
7031;SDS011;3557;48.880;8.328;2023-06-22T01:36:13;6.40;;;5.22;;
7031;SDS011;3557;48.880;8.328;2023-06-22T01:38:41;5.80;;;5.20;;
7031;SDS011;3557;48.880;8.328;2023-06-22T01:41:10;6.75;;;5.20;;
7031;SDS011;3557;48.880;8.328;2023-06-22T01:43:39;6.40;;;5.40;;
7031;SDS011;3557;48.880;8.328;2023-06-22T01:46:07;6.50;;;4.93;;
7031;SDS011;3557;48.880;8.328;2023-06-22T01:48:35;9.55;;;5.45;;
7031;SDS011;3557;48.880;8.328;2023-06-22T01:51:03;6.50;;;5.28;;
7031;SDS011;3557;48.880;8.328;2023-06-22T01:53:31;7.18;;;5.43;;
7031;SDS011;3557;48.880;8.328;2023-06-22T01:55:58;10.55;;;5.47;;
7031;SDS011;3557;48.880;8.328;2023-06-22T01:58:28;6.05;;;5.40;;
7031;SDS011;3557;48.880;8.328;2023-06-22T02:00:59;8.20;;;5.85;;
7031;SDS011;3557;48.880;8.328;2023-06-22T02:03:34;8.27;;;5.63;;
7031;SDS011;3557;48.880;8.328;2023-06-22T02:06:05;6.53;;;5.28;;
7031;SDS011;3557;48.880;8.328;2023-06-22T02:08:37;7.28;;;5.55;;
7031;SDS011;3557;48.880;8.328;2023-06-22T02:11:07;8.50;;;5.45;;
7031;SDS011;3557;48.880;8.328;2023-06-22T02:13:36;10.93;;;6.00;;
7031;SDS011;3557;48.880;8.328;2023-06-22T02:16:09;8.75;;;6.00;;
7031;SDS011;3557;48.880;8.328;2023-06-22T02:18:39;8.82;;;5.40;;
7031;SDS011;3557;48.880;8.328;2023-06-22T02:21:16;8.35;;;5.70;;
7031;SDS011;3557;48.880;8.328;2023-06-22T02:23:43;6.13;;;5.53;;
7031;SDS011;3557;48.880;8.328;2023-06-22T02:26:11;7.50;;;5.40;;
7031;SDS011;3557;48.880;8.328;2023-06-22T02:28:39;7.28;;;5.65;;
7031;SDS011;3557;48.880;8.328;2023-06-22T02:31:06;6.65;;;5.18;;
7031;SDS011;3557;48.880;8.328;2023-06-22T02:33:35;6.85;;;4.72;;
7031;SDS011;3557;48.880;8.328;2023-06-22T02:36:02;6.82;;;5.40;;
7031;SDS011;3557;48.880;8.328;2023-06-22T02:38:30;6.50;;;5.38;;
7031;SDS011;3557;48.880;8.328;2023-06-22T02:40:59;6.57;;;5.63;;
7031;SDS011;3557;48.880;8.328;2023-06-22T02:43:27;9.55;;;5.15;;
7031;SDS011;3557;48.880;8.328;2023-06-22T02:45:54;10.38;;;5.28;;
7031;SDS011;3557;48.880;8.328;2023-06-22T02:48:23;6.45;;;5.43;;
7031;SDS011;3557;48.880;8.328;2023-06-22T02:50:53;7.22;;;5.47;;
7031;SDS011;3557;48.880;8.328;2023-06-22T02:53:21;6.45;;;5.18;;
7031;SDS011;3557;48.880;8.328;2023-06-22T02:55:48;6.30;;;5.40;;
7031;SDS011;3557;48.880;8.328;2023-06-22T02:58:16;6.78;;;5.57;;
7031;SDS011;3557;48.880;8.328;2023-06-22T03:00:43;6.55;;;5.43;;
7031;SDS011;3557;48.880;8.328;2023-06-22T03:03:11;6.68;;;5.53;;
7031;SDS011;3557;48.880;8.328;2023-06-22T03:05:38;6.25;;;5.65;;
7031;SDS011;3557;48.880;8.328;2023-06-22T03:08:07;6.65;;;5.43;;
7031;SDS011;3557;48.880;8.328;2023-06-22T03:10:35;6.95;;;5.60;;
7031;SDS011;3557;48.880;8.328;2023-06-22T03:13:02;7.22;;;5.57;;
7031;SDS011;3557;48.880;8.328;2023-06-22T03:15:30;8.77;;;5.45;;
7031;SDS011;3557;48.880;8.328;2023-06-22T03:18:00;8.32;;;5.30;;
7031;SDS011;3557;48.880;8.328;2023-06-22T03:20:27;7.15;;;5.25;;
7031;SDS011;3557;48.880;8.328;2023-06-22T03:22:59;8.40;;;5.65;;
7031;SDS011;3557;48.880;8.328;2023-06-22T03:25:28;5.85;;;5.25;;
7031;SDS011;3557;48.880;8.328;2023-06-22T03:27:55;7.00;;;5.65;;
7031;SDS011;3557;48.880;8.328;2023-06-22T03:30:25;6.75;;;5.57;;
7031;SDS011;3557;48.880;8.328;2023-06-22T03:32:52;8.00;;;5.63;;
7031;SDS011;3557;48.880;8.328;2023-06-22T03:35:19;6.15;;;5.55;;
7031;SDS011;3557;48.880;8.328;2023-06-22T03:37:47;6.47;;;5.80;;
7031;SDS011;3557;48.880;8.328;2023-06-22T03:40:15;7.90;;;5.80;;
7031;SDS011;3557;48.880;8.328;2023-06-22T03:42:43;8.68;;;5.80;;
7031;SDS011;3557;48.880;8.328;2023-06-22T03:45:11;8.75;;;5.85;;
7031;SDS011;3557;48.880;8.328;2023-06-22T03:47:40;8.00;;;5.95;;
7031;SDS011;3557;48.880;8.328;2023-06-22T03:50:07;6.53;;;5.60;;
7031;SDS011;3557;48.880;8.328;2023-06-22T03:52:35;8.23;;;5.63;;
7031;SDS011;3557;48.880;8.328;2023-06-22T03:55:03;10.75;;;5.43;;
7031;SDS011;3557;48.880;8.328;2023-06-22T03:57:32;10.50;;;6.13;;
7031;SDS011;3557;48.880;8.328;2023-06-22T04:00:01;9.75;;;5.82;;
7031;SDS011;3557;48.880;8.328;2023-06-22T04:02:37;8.40;;;5.80;;
7031;SDS011;3557;48.880;8.328;2023-06-22T04:05:05;8.45;;;5.50;;
7031;SDS011;3557;48.880;8.328;2023-06-22T04:07:33;7.20;;;5.75;;
7031;SDS011;3557;48.880;8.328;2023-06-22T04:10:02;7.30;;;5.68;;
7031;SDS011;3557;48.880;8.328;2023-06-22T04:12:30;7.18;;;5.85;;
7031;SDS011;3557;48.880;8.328;2023-06-22T04:14:57;7.00;;;5.85;;
7031;SDS011;3557;48.880;8.328;2023-06-22T04:17:26;10.43;;;6.07;;
7031;SDS011;3557;48.880;8.328;2023-06-22T04:19:53;7.45;;;5.43;;
7031;SDS011;3557;48.880;8.328;2023-06-22T04:22:21;8.63;;;5.93;;
7031;SDS011;3557;48.880;8.328;2023-06-22T04:24:48;7.03;;;5.28;;
7031;SDS011;3557;48.880;8.328;2023-06-22T04:27:18;7.68;;;5.75;;
7031;SDS011;3557;48.880;8.328;2023-06-22T04:29:48;7.25;;;5.35;;
7031;SDS011;3557;48.880;8.328;2023-06-22T04:32:16;8.60;;;5.70;;
7031;SDS011;3557;48.880;8.328;2023-06-22T04:34:45;6.97;;;5.30;;
7031;SDS011;3557;48.880;8.328;2023-06-22T04:37:13;6.25;;;5.10;;
7031;SDS011;3557;48.880;8.328;2023-06-22T04:39:41;6.55;;;5.40;;
7031;SDS011;3557;48.880;8.328;2023-06-22T04:42:09;6.03;;;5.30;;
7031;SDS011;3557;48.880;8.328;2023-06-22T04:44:36;6.47;;;5.05;;
7031;SDS011;3557;48.880;8.328;2023-06-22T04:47:05;6.53;;;5.25;;
7031;SDS011;3557;48.880;8.328;2023-06-22T04:49:33;11.02;;;5.57;;
7031;SDS011;3557;48.880;8.328;2023-06-22T04:52:04;8.35;;;5.45;;
7031;SDS011;3557;48.880;8.328;2023-06-22T04:54:33;6.40;;;5.00;;
7031;SDS011;3557;48.880;8.328;2023-06-22T04:57:03;10.50;;;5.60;;
7031;SDS011;3557;48.880;8.328;2023-06-22T04:59:34;7.45;;;5.13;;
7031;SDS011;3557;48.880;8.328;2023-06-22T05:02:04;6.47;;;5.10;;
7031;SDS011;3557;48.880;8.328;2023-06-22T05:04:32;7.45;;;4.97;;
7031;SDS011;3557;48.880;8.328;2023-06-22T05:07:01;7.43;;;5.30;;
7031;SDS011;3557;48.880;8.328;2023-06-22T05:09:30;6.03;;;5.20;;
7031;SDS011;3557;48.880;8.328;2023-06-22T05:11:58;7.97;;;5.20;;
7031;SDS011;3557;48.880;8.328;2023-06-22T05:14:27;5.97;;;5.10;;
7031;SDS011;3557;48.880;8.328;2023-06-22T05:16:55;10.13;;;5.10;;
7031;SDS011;3557;48.880;8.328;2023-06-22T05:19:24;6.65;;;4.80;;
7031;SDS011;3557;48.880;8.328;2023-06-22T05:21:58;5.32;;;4.80;;
7031;SDS011;3557;48.880;8.328;2023-06-22T05:24:27;10.82;;;5.55;;
7031;SDS011;3557;48.880;8.328;2023-06-22T05:26:54;6.05;;;4.90;;
7031;SDS011;3557;48.880;8.328;2023-06-22T05:29:22;9.25;;;4.80;;
7031;SDS011;3557;48.880;8.328;2023-06-22T05:31:49;6.93;;;5.38;;
7031;SDS011;3557;48.880;8.328;2023-06-22T05:34:16;7.13;;;4.97;;
7031;SDS011;3557;48.880;8.328;2023-06-22T05:36:44;7.38;;;5.15;;
7031;SDS011;3557;48.880;8.328;2023-06-22T05:39:11;7.78;;;4.82;;
7031;SDS011;3557;48.880;8.328;2023-06-22T05:41:41;5.70;;;4.85;;
7031;SDS011;3557;48.880;8.328;2023-06-22T05:44:09;5.65;;;4.80;;
7031;SDS011;3557;48.880;8.328;2023-06-22T05:46:36;6.65;;;4.93;;
7031;SDS011;3557;48.880;8.328;2023-06-22T05:49:09;8.38;;;5.25;;
7031;SDS011;3557;48.880;8.328;2023-06-22T05:51:37;6.40;;;4.55;;
7031;SDS011;3557;48.880;8.328;2023-06-22T05:54:04;6.95;;;4.75;;
7031;SDS011;3557;48.880;8.328;2023-06-22T05:56:33;7.40;;;4.65;;
7031;SDS011;3557;48.880;8.328;2023-06-22T05:59:02;5.22;;;4.55;;
7031;SDS011;3557;48.880;8.328;2023-06-22T06:01:30;6.63;;;4.72;;
7031;SDS011;3557;48.880;8.328;2023-06-22T06:04:00;5.30;;;4.20;;
7031;SDS011;3557;48.880;8.328;2023-06-22T06:06:29;7.07;;;4.63;;
7031;SDS011;3557;48.880;8.328;2023-06-22T06:08:56;6.13;;;4.63;;
7031;SDS011;3557;48.880;8.328;2023-06-22T06:11:24;7.25;;;4.53;;
7031;SDS011;3557;48.880;8.328;2023-06-22T06:13:52;8.68;;;4.63;;
7031;SDS011;3557;48.880;8.328;2023-06-22T06:16:20;8.77;;;5.05;;
7031;SDS011;3557;48.880;8.328;2023-06-22T06:18:48;4.60;;;4.13;;
7031;SDS011;3557;48.880;8.328;2023-06-22T06:21:16;5.40;;;4.25;;
7031;SDS011;3557;48.880;8.328;2023-06-22T06:23:43;5.35;;;4.40;;
7031;SDS011;3557;48.880;8.328;2023-06-22T06:26:10;5.18;;;4.68;;
7031;SDS011;3557;48.880;8.328;2023-06-22T06:28:37;6.95;;;4.43;;
7031;SDS011;3557;48.880;8.328;2023-06-22T06:31:06;5.03;;;4.18;;
7031;SDS011;3557;48.880;8.328;2023-06-22T06:33:35;10.02;;;4.60;;
7031;SDS011;3557;48.880;8.328;2023-06-22T06:36:03;7.47;;;5.03;;
7031;SDS011;3557;48.880;8.328;2023-06-22T06:38:30;4.78;;;4.30;;
7031;SDS011;3557;48.880;8.328;2023-06-22T06:40:58;5.80;;;4.43;;
7031;SDS011;3557;48.880;8.328;2023-06-22T06:43:25;8.05;;;4.88;;
7031;SDS011;3557;48.880;8.328;2023-06-22T06:45:53;6.80;;;4.68;;
7031;SDS011;3557;48.880;8.328;2023-06-22T06:48:20;6.70;;;4.63;;
7031;SDS011;3557;48.880;8.328;2023-06-22T06:50:48;6.95;;;4.65;;
7031;SDS011;3557;48.880;8.328;2023-06-22T06:53:16;6.35;;;4.65;;
7031;SDS011;3557;48.880;8.328;2023-06-22T06:55:43;6.07;;;4.53;;
7031;SDS011;3557;48.880;8.328;2023-06-22T06:58:11;6.80;;;3.92;;
7031;SDS011;3557;48.880;8.328;2023-06-22T07:00:38;9.18;;;4.45;;
7031;SDS011;3557;48.880;8.328;2023-06-22T07:03:06;5.75;;;3.90;;
7031;SDS011;3557;48.880;8.328;2023-06-22T07:05:33;9.95;;;4.30;;
7031;SDS011;3557;48.880;8.328;2023-06-22T07:08:02;5.13;;;4.00;;
7031;SDS011;3557;48.880;8.328;2023-06-22T07:10:30;9.23;;;3.90;;
7031;SDS011;3557;48.880;8.328;2023-06-22T07:12:57;6.88;;;4.07;;
7031;SDS011;3557;48.880;8.328;2023-06-22T07:15:25;8.80;;;4.13;;
7031;SDS011;3557;48.880;8.328;2023-06-22T07:17:53;6.88;;;4.15;;
7031;SDS011;3557;48.880;8.328;2023-06-22T07:20:20;5.45;;;4.15;;
7031;SDS011;3557;48.880;8.328;2023-06-22T07:22:47;5.55;;;3.90;;
7031;SDS011;3557;48.880;8.328;2023-06-22T07:25:16;5.43;;;4.07;;
7031;SDS011;3557;48.880;8.328;2023-06-22T07:27:44;6.13;;;3.63;;
7031;SDS011;3557;48.880;8.328;2023-06-22T07:30:13;8.60;;;3.90;;
7031;SDS011;3557;48.880;8.328;2023-06-22T07:32:41;7.38;;;3.95;;
7031;SDS011;3557;48.880;8.328;2023-06-22T07:35:08;5.80;;;3.97;;
7031;SDS011;3557;48.880;8.328;2023-06-22T07:37:35;4.32;;;3.53;;
7031;SDS011;3557;48.880;8.328;2023-06-22T07:40:03;6.72;;;3.90;;
7031;SDS011;3557;48.880;8.328;2023-06-22T07:42:34;6.75;;;3.92;;
7031;SDS011;3557;48.880;8.328;2023-06-22T07:45:02;3.97;;;3.58;;
7031;SDS011;3557;48.880;8.328;2023-06-22T07:47:31;5.20;;;3.80;;
7031;SDS011;3557;48.880;8.328;2023-06-22T07:50:00;7.15;;;4.18;;
7031;SDS011;3557;48.880;8.328;2023-06-22T07:52:29;9.65;;;3.90;;
7031;SDS011;3557;48.880;8.328;2023-06-22T07:54:57;6.30;;;3.90;;
7031;SDS011;3557;48.880;8.328;2023-06-22T07:57:24;6.80;;;4.10;;
7031;SDS011;3557;48.880;8.328;2023-06-22T07:59:59;9.30;;;4.07;;
7031;SDS011;3557;48.880;8.328;2023-06-22T08:02:38;5.78;;;4.03;;
7031;SDS011;3557;48.880;8.328;2023-06-22T08:05:06;9.40;;;4.00;;
7031;SDS011;3557;48.880;8.328;2023-06-22T08:07:34;8.50;;;4.13;;
7031;SDS011;3557;48.880;8.328;2023-06-22T08:10:03;5.95;;;3.92;;
7031;SDS011;3557;48.880;8.328;2023-06-22T08:12:31;7.10;;;3.90;;
7031;SDS011;3557;48.880;8.328;2023-06-22T08:15:00;7.63;;;3.83;;
7031;SDS011;3557;48.880;8.328;2023-06-22T08:17:27;7.63;;;4.10;;
7031;SDS011;3557;48.880;8.328;2023-06-22T08:19:56;5.55;;;3.97;;
7031;SDS011;3557;48.880;8.328;2023-06-22T08:22:23;7.95;;;4.45;;
7031;SDS011;3557;48.880;8.328;2023-06-22T08:24:51;6.43;;;4.43;;
7031;SDS011;3557;48.880;8.328;2023-06-22T08:27:18;5.93;;;3.90;;
7031;SDS011;3557;48.880;8.328;2023-06-22T08:29:48;7.50;;;4.40;;
7031;SDS011;3557;48.880;8.328;2023-06-22T08:32:18;7.80;;;4.70;;
7031;SDS011;3557;48.880;8.328;2023-06-22T08:34:46;7.20;;;4.47;;
7031;SDS011;3557;48.880;8.328;2023-06-22T08:37:13;11.60;;;4.68;;
7031;SDS011;3557;48.880;8.328;2023-06-22T08:39:41;6.57;;;4.65;;
7031;SDS011;3557;48.880;8.328;2023-06-22T08:42:08;7.38;;;4.60;;
7031;SDS011;3557;48.880;8.328;2023-06-22T08:44:36;7.13;;;5.20;;
7031;SDS011;3557;48.880;8.328;2023-06-22T08:47:04;7.05;;;4.75;;
7031;SDS011;3557;48.880;8.328;2023-06-22T08:49:33;6.40;;;4.80;;
7031;SDS011;3557;48.880;8.328;2023-06-22T08:52:01;11.07;;;4.53;;
7031;SDS011;3557;48.880;8.328;2023-06-22T08:54:28;6.22;;;4.80;;
7031;SDS011;3557;48.880;8.328;2023-06-22T08:56:59;8.90;;;4.50;;
7031;SDS011;3557;48.880;8.328;2023-06-22T08:59:27;6.78;;;4.82;;
7031;SDS011;3557;48.880;8.328;2023-06-22T09:01:54;8.98;;;5.05;;
7031;SDS011;3557;48.880;8.328;2023-06-22T09:04:22;7.65;;;4.70;;
7031;SDS011;3557;48.880;8.328;2023-06-22T09:06:50;10.82;;;4.95;;
7031;SDS011;3557;48.880;8.328;2023-06-22T09:09:18;9.40;;;4.88;;
7031;SDS011;3557;48.880;8.328;2023-06-22T09:11:47;8.10;;;4.78;;
7031;SDS011;3557;48.880;8.328;2023-06-22T09:14:14;8.00;;;4.97;;
7031;SDS011;3557;48.880;8.328;2023-06-22T09:16:42;7.88;;;5.10;;
7031;SDS011;3557;48.880;8.328;2023-06-22T09:19:09;7.28;;;4.97;;
7031;SDS011;3557;48.880;8.328;2023-06-22T09:21:36;6.60;;;4.75;;
7031;SDS011;3557;48.880;8.328;2023-06-22T09:24:05;8.18;;;4.65;;
7031;SDS011;3557;48.880;8.328;2023-06-22T09:26:33;7.93;;;4.53;;
7031;SDS011;3557;48.880;8.328;2023-06-22T09:29:00;9.85;;;4.70;;
7031;SDS011;3557;48.880;8.328;2023-06-22T09:31:28;11.35;;;5.15;;
7031;SDS011;3557;48.880;8.328;2023-06-22T09:33:55;7.97;;;4.80;;
7031;SDS011;3557;48.880;8.328;2023-06-22T09:36:22;9.18;;;5.15;;
7031;SDS011;3557;48.880;8.328;2023-06-22T09:38:50;10.52;;;5.15;;
7031;SDS011;3557;48.880;8.328;2023-06-22T09:41:22;5.90;;;4.63;;
7031;SDS011;3557;48.880;8.328;2023-06-22T09:43:49;10.98;;;5.20;;
7031;SDS011;3557;48.880;8.328;2023-06-22T09:46:17;8.18;;;4.70;;
7031;SDS011;3557;48.880;8.328;2023-06-22T09:48:46;8.65;;;4.80;;
7031;SDS011;3557;48.880;8.328;2023-06-22T09:51:14;8.38;;;4.95;;
7031;SDS011;3557;48.880;8.328;2023-06-22T09:53:41;8.93;;;4.90;;
7031;SDS011;3557;48.880;8.328;2023-06-22T09:56:09;5.72;;;4.40;;
7031;SDS011;3557;48.880;8.328;2023-06-22T09:58:41;6.80;;;4.47;;
7031;SDS011;3557;48.880;8.328;2023-06-22T10:01:08;8.63;;;5.13;;
7031;SDS011;3557;48.880;8.328;2023-06-22T10:03:36;7.40;;;4.80;;
7031;SDS011;3557;48.880;8.328;2023-06-22T10:06:03;9.60;;;4.70;;
7031;SDS011;3557;48.880;8.328;2023-06-22T10:08:31;8.75;;;5.00;;
7031;SDS011;3557;48.880;8.328;2023-06-22T10:10:58;6.88;;;4.38;;
7031;SDS011;3557;48.880;8.328;2023-06-22T10:13:25;5.30;;;4.55;;
7031;SDS011;3557;48.880;8.328;2023-06-22T10:15:54;7.82;;;4.85;;
7031;SDS011;3557;48.880;8.328;2023-06-22T10:18:22;7.68;;;5.10;;
7031;SDS011;3557;48.880;8.328;2023-06-22T10:20:50;8.20;;;4.78;;
7031;SDS011;3557;48.880;8.328;2023-06-22T10:23:18;13.43;;;4.90;;
7031;SDS011;3557;48.880;8.328;2023-06-22T10:25:45;10.35;;;4.93;;
7031;SDS011;3557;48.880;8.328;2023-06-22T10:28:13;8.25;;;4.90;;
7031;SDS011;3557;48.880;8.328;2023-06-22T10:30:41;7.82;;;4.95;;
7031;SDS011;3557;48.880;8.328;2023-06-22T10:33:10;10.60;;;5.10;;
7031;SDS011;3557;48.880;8.328;2023-06-22T10:35:38;9.57;;;4.95;;
7031;SDS011;3557;48.880;8.328;2023-06-22T10:38:05;12.23;;;5.25;;
7031;SDS011;3557;48.880;8.328;2023-06-22T10:40:33;16.58;;;5.35;;
7031;SDS011;3557;48.880;8.328;2023-06-22T10:43:01;8.45;;;5.05;;
7031;SDS011;3557;48.880;8.328;2023-06-22T10:45:28;9.35;;;4.93;;
7031;SDS011;3557;48.880;8.328;2023-06-22T10:47:55;8.45;;;5.00;;
7031;SDS011;3557;48.880;8.328;2023-06-22T10:50:24;7.22;;;4.68;;
7031;SDS011;3557;48.880;8.328;2023-06-22T10:52:52;10.48;;;5.10;;
7031;SDS011;3557;48.880;8.328;2023-06-22T10:55:20;7.40;;;4.57;;
7031;SDS011;3557;48.880;8.328;2023-06-22T10:57:47;10.80;;;4.82;;
7031;SDS011;3557;48.880;8.328;2023-06-22T11:00:15;6.57;;;5.07;;
7031;SDS011;3557;48.880;8.328;2023-06-22T11:02:43;8.82;;;4.97;;
7031;SDS011;3557;48.880;8.328;2023-06-22T11:05:10;6.70;;;5.07;;
7031;SDS011;3557;48.880;8.328;2023-06-22T11:07:39;7.50;;;4.80;;
7031;SDS011;3557;48.880;8.328;2023-06-22T11:10:09;8.50;;;5.30;;
7031;SDS011;3557;48.880;8.328;2023-06-22T11:12:37;9.63;;;5.05;;
7031;SDS011;3557;48.880;8.328;2023-06-22T11:15:04;8.70;;;4.90;;
7031;SDS011;3557;48.880;8.328;2023-06-22T11:17:33;5.90;;;5.00;;
7031;SDS011;3557;48.880;8.328;2023-06-22T11:20:00;6.82;;;4.65;;
7031;SDS011;3557;48.880;8.328;2023-06-22T11:22:34;8.73;;;5.10;;
7031;SDS011;3557;48.880;8.328;2023-06-22T11:25:04;11.68;;;5.03;;
7031;SDS011;3557;48.880;8.328;2023-06-22T11:27:32;7.53;;;5.25;;
7031;SDS011;3557;48.880;8.328;2023-06-22T11:29:59;7.05;;;5.10;;
7031;SDS011;3557;48.880;8.328;2023-06-22T11:32:27;7.32;;;5.18;;
7031;SDS011;3557;48.880;8.328;2023-06-22T11:34:55;8.77;;;4.93;;
7031;SDS011;3557;48.880;8.328;2023-06-22T11:37:22;9.77;;;5.53;;
7031;SDS011;3557;48.880;8.328;2023-06-22T11:39:49;9.10;;;5.47;;
7031;SDS011;3557;48.880;8.328;2023-06-22T11:42:21;11.15;;;5.03;;
7031;SDS011;3557;48.880;8.328;2023-06-22T11:44:49;8.95;;;5.05;;
7031;SDS011;3557;48.880;8.328;2023-06-22T11:47:17;10.73;;;5.20;;
7031;SDS011;3557;48.880;8.328;2023-06-22T11:49:44;7.70;;;5.28;;
7031;SDS011;3557;48.880;8.328;2023-06-22T11:52:12;6.40;;;5.25;;
7031;SDS011;3557;48.880;8.328;2023-06-22T11:54:39;11.50;;;5.72;;
7031;SDS011;3557;48.880;8.328;2023-06-22T11:57:06;10.68;;;5.50;;
7031;SDS011;3557;48.880;8.328;2023-06-22T11:59:35;10.00;;;5.18;;
7031;SDS011;3557;48.880;8.328;2023-06-22T12:02:02;8.30;;;5.15;;
7031;SDS011;3557;48.880;8.328;2023-06-22T12:04:32;12.43;;;5.57;;
7031;SDS011;3557;48.880;8.328;2023-06-22T12:06:59;11.52;;;5.60;;
7031;SDS011;3557;48.880;8.328;2023-06-22T12:09:27;12.02;;;5.60;;
7031;SDS011;3557;48.880;8.328;2023-06-22T12:11:54;9.77;;;5.68;;
7031;SDS011;3557;48.880;8.328;2023-06-22T12:14:22;10.02;;;5.45;;
7031;SDS011;3557;48.880;8.328;2023-06-22T12:16:50;9.23;;;5.05;;
7031;SDS011;3557;48.880;8.328;2023-06-22T12:19:18;8.05;;;5.13;;
7031;SDS011;3557;48.880;8.328;2023-06-22T12:21:45;6.95;;;5.32;;
7031;SDS011;3557;48.880;8.328;2023-06-22T12:24:12;10.75;;;5.80;;
7031;SDS011;3557;48.880;8.328;2023-06-22T12:26:40;8.50;;;5.18;;
7031;SDS011;3557;48.880;8.328;2023-06-22T12:29:07;8.80;;;5.20;;
7031;SDS011;3557;48.880;8.328;2023-06-22T12:31:35;13.43;;;5.30;;
7031;SDS011;3557;48.880;8.328;2023-06-22T12:34:05;9.57;;;5.72;;
7031;SDS011;3557;48.880;8.328;2023-06-22T12:36:32;11.90;;;5.60;;
7031;SDS011;3557;48.880;8.328;2023-06-22T12:38:59;8.15;;;5.53;;
7031;SDS011;3557;48.880;8.328;2023-06-22T12:41:27;12.95;;;6.03;;
7031;SDS011;3557;48.880;8.328;2023-06-22T12:43:54;10.35;;;6.10;;
7031;SDS011;3557;48.880;8.328;2023-06-22T12:46:21;11.00;;;5.20;;
7031;SDS011;3557;48.880;8.328;2023-06-22T12:48:49;16.90;;;5.65;;
7031;SDS011;3557;48.880;8.328;2023-06-22T12:51:21;10.98;;;5.82;;
7031;SDS011;3557;48.880;8.328;2023-06-22T12:53:49;12.98;;;6.18;;
7031;SDS011;3557;48.880;8.328;2023-06-22T12:56:16;11.82;;;5.68;;
7031;SDS011;3557;48.880;8.328;2023-06-22T12:58:43;9.85;;;5.60;;
7031;SDS011;3557;48.880;8.328;2023-06-22T13:01:11;7.60;;;5.60;;
7031;SDS011;3557;48.880;8.328;2023-06-22T13:03:39;8.27;;;6.00;;
7031;SDS011;3557;48.880;8.328;2023-06-22T13:06:06;8.68;;;5.43;;
7031;SDS011;3557;48.880;8.328;2023-06-22T13:08:35;13.63;;;5.82;;
7031;SDS011;3557;48.880;8.328;2023-06-22T13:11:03;11.18;;;6.32;;
7031;SDS011;3557;48.880;8.328;2023-06-22T13:13:30;7.60;;;5.18;;
7031;SDS011;3557;48.880;8.328;2023-06-22T13:15:59;10.23;;;5.97;;
7031;SDS011;3557;48.880;8.328;2023-06-22T13:18:26;6.85;;;5.63;;
7031;SDS011;3557;48.880;8.328;2023-06-22T13:20:53;10.80;;;5.88;;
7031;SDS011;3557;48.880;8.328;2023-06-22T13:23:21;10.27;;;6.03;;
7031;SDS011;3557;48.880;8.328;2023-06-22T13:25:49;7.20;;;5.43;;
7031;SDS011;3557;48.880;8.328;2023-06-22T13:28:17;10.68;;;6.07;;
7031;SDS011;3557;48.880;8.328;2023-06-22T13:30:46;9.38;;;5.47;;
7031;SDS011;3557;48.880;8.328;2023-06-22T13:33:13;8.85;;;5.57;;
7031;SDS011;3557;48.880;8.328;2023-06-22T13:35:41;9.13;;;5.95;;
7031;SDS011;3557;48.880;8.328;2023-06-22T13:38:08;11.32;;;5.57;;
7031;SDS011;3557;48.880;8.328;2023-06-22T13:40:36;9.95;;;5.93;;
7031;SDS011;3557;48.880;8.328;2023-06-22T13:43:05;9.98;;;5.95;;
7031;SDS011;3557;48.880;8.328;2023-06-22T13:45:33;13.20;;;6.07;;
7031;SDS011;3557;48.880;8.328;2023-06-22T13:48:00;11.88;;;5.95;;
7031;SDS011;3557;48.880;8.328;2023-06-22T13:50:27;11.57;;;6.00;;
7031;SDS011;3557;48.880;8.328;2023-06-22T13:52:55;11.70;;;5.85;;
7031;SDS011;3557;48.880;8.328;2023-06-22T13:55:22;9.85;;;5.72;;
7031;SDS011;3557;48.880;8.328;2023-06-22T13:57:51;9.85;;;5.72;;
7031;SDS011;3557;48.880;8.328;2023-06-22T14:00:20;9.18;;;6.13;;
7031;SDS011;3557;48.880;8.328;2023-06-22T14:02:48;10.63;;;5.97;;
7031;SDS011;3557;48.880;8.328;2023-06-22T14:05:15;7.57;;;5.68;;
7031;SDS011;3557;48.880;8.328;2023-06-22T14:07:43;9.68;;;5.90;;
7031;SDS011;3557;48.880;8.328;2023-06-22T14:10:10;11.65;;;6.35;;
7031;SDS011;3557;48.880;8.328;2023-06-22T14:12:38;8.88;;;5.80;;
7031;SDS011;3557;48.880;8.328;2023-06-22T14:15:05;10.95;;;6.47;;
7031;SDS011;3557;48.880;8.328;2023-06-22T14:17:35;10.93;;;5.90;;
7031;SDS011;3557;48.880;8.328;2023-06-22T14:20:02;11.25;;;6.38;;
7031;SDS011;3557;48.880;8.328;2023-06-22T14:22:33;10.45;;;5.75;;
7031;SDS011;3557;48.880;8.328;2023-06-22T14:25:01;15.63;;;6.07;;
7031;SDS011;3557;48.880;8.328;2023-06-22T14:27:29;13.98;;;6.35;;
7031;SDS011;3557;48.880;8.328;2023-06-22T14:29:56;11.43;;;6.03;;
7031;SDS011;3557;48.880;8.328;2023-06-22T14:32:23;9.93;;;5.82;;
7031;SDS011;3557;48.880;8.328;2023-06-22T14:34:52;8.75;;;5.75;;
7031;SDS011;3557;48.880;8.328;2023-06-22T14:37:19;12.93;;;5.93;;
7031;SDS011;3557;48.880;8.328;2023-06-22T14:39:47;7.97;;;5.45;;
7031;SDS011;3557;48.880;8.328;2023-06-22T14:42:14;9.88;;;5.78;;
7031;SDS011;3557;48.880;8.328;2023-06-22T14:44:41;13.52;;;5.55;;
7031;SDS011;3557;48.880;8.328;2023-06-22T14:47:10;11.07;;;5.63;;
7031;SDS011;3557;48.880;8.328;2023-06-22T14:49:37;15.73;;;5.43;;
7031;SDS011;3557;48.880;8.328;2023-06-22T14:52:07;8.15;;;5.32;;
7031;SDS011;3557;48.880;8.328;2023-06-22T14:54:35;9.30;;;5.40;;
7031;SDS011;3557;48.880;8.328;2023-06-22T14:57:02;11.18;;;5.80;;
7031;SDS011;3557;48.880;8.328;2023-06-22T14:59:30;12.80;;;5.78;;
7031;SDS011;3557;48.880;8.328;2023-06-22T15:01:57;12.18;;;5.50;;
7031;SDS011;3557;48.880;8.328;2023-06-22T15:04:24;11.70;;;5.28;;
7031;SDS011;3557;48.880;8.328;2023-06-22T15:06:56;12.05;;;5.72;;
7031;SDS011;3557;48.880;8.328;2023-06-22T15:09:25;11.32;;;5.65;;
7031;SDS011;3557;48.880;8.328;2023-06-22T15:11:53;13.00;;;5.72;;
7031;SDS011;3557;48.880;8.328;2023-06-22T15:14:20;15.65;;;5.78;;
7031;SDS011;3557;48.880;8.328;2023-06-22T15:16:48;14.45;;;5.90;;
7031;SDS011;3557;48.880;8.328;2023-06-22T15:19:15;15.25;;;5.70;;